Time;durP1;ratioP1;P1;durP2;ratioP2;P2;SDS_P1;SDS_P2;PMS_P1;PMS_P2;Temp;Humidity;BMP_temperature;BMP_pressure;BME280_temperature;BME280_humidity;BME280_pressure;Samples;Min_cycle;Max_cycle;Signal;HPM_P1;HPM_P2
2022/06/19 00:01:07;;;;;;;;;12.00;12.00;;;;;27.68;45.78;100415.31;6155533;23;45476;-83
2022/06/19 00:03:43;;;;;;;;;11.25;9.75;;;;;27.47;45.46;100439.81;6155963;23;45474;-84
2022/06/19 00:06:08;;;;;;;;;11.25;10.50;;;;;27.28;45.24;100416.84;6155185;23;45537;-84
2022/06/19 00:08:33;;;;;;;;;12.75;12.00;;;;;27.10;44.65;100448.09;6181364;23;63017;-84
2022/06/19 00:11:00;;;;;;;;;15.25;12.50;;;;;26.90;46.91;100482.25;6181938;23;45141;-85
2022/06/19 00:13:25;;;;;;;;;13.75;9.00;;;;;26.67;45.38;100447.19;6180256;23;45325;-85
2022/06/19 00:15:51;;;;;;;;;13.25;12.75;;;;;26.54;47.56;100523.16;6155746;23;45429;-83
2022/06/19 00:18:16;;;;;;;;;11.25;10.75;;;;;26.30;45.85;100505.09;6180799;23;64941;-84
2022/06/19 00:20:42;;;;;;;;;9.00;9.00;;;;;26.13;46.34;100517.41;6182011;23;45201;-86
2022/06/19 00:23:07;;;;;;;;;12.50;8.00;;;;;25.85;46.26;100492.56;6180434;23;45433;-87
2022/06/19 00:25:34;;;;;;;;;14.00;10.00;;;;;25.68;46.34;100519.03;6179892;23;47523;-86
2022/06/19 00:27:59;;;;;;;;;9.25;8.75;;;;;25.46;47.06;100511.44;6130820;23;45775;-86
2022/06/19 00:30:25;;;;;;;;;9.00;8.25;;;;;25.34;46.89;100501.97;6180443;23;45314;-86
2022/06/19 00:32:50;;;;;;;;;8.50;7.25;;;;;25.24;46.90;100494.84;6182320;23;45283;-86
2022/06/19 00:35:15;;;;;;;;;7.50;6.75;;;;;25.09;46.70;100480.25;6181717;23;47096;-85
2022/06/19 00:37:41;;;;;;;;;7.50;7.50;;;;;25.01;46.91;100498.78;6181532;23;48264;-85
2022/06/19 00:40:08;;;;;;;;;10.00;7.50;;;;;24.85;46.76;100475.41;6181998;23;45371;-85
2022/06/19 00:42:33;;;;;;;;;10.25;7.00;;;;;24.67;47.21;100485.97;6155130;23;45237;-85
2022/06/19 00:45:00;;;;;;;;;10.00;7.25;;;;;24.57;46.88;100487.78;6154857;23;63104;-85
2022/06/19 00:47:29;;;;;;;;;7.75;5.75;;;;;24.32;48.07;100487.34;6180560;23;45284;-84
2022/06/19 00:50:02;;;;;;;;;7.75;6.00;;;;;24.17;46.78;100494.06;6155257;23;45296;-85
2022/06/19 00:52:33;;;;;;;;;5.00;5.00;;;;;23.93;46.97;100505.91;6182189;23;45260;-85
2022/06/19 00:55:02;;;;;;;;;7.00;6.00;;;;;23.78;47.15;100506.25;6129950;23;48129;-86
2022/06/19 00:57:29;;;;;;;;;8.50;5.25;;;;;23.65;47.37;100526.09;6155461;23;45757;-85
2022/06/19 01:00:05;;;;;;;;;8.00;6.75;;;;;23.49;47.72;100500.84;6179723;23;45370;-85
2022/06/19 01:02:31;;;;;;;;;9.00;8.00;;;;;23.36;47.24;100519.69;6207422;22;45495;-86
2022/06/19 01:04:56;;;;;;;;;12.75;9.00;;;;;23.17;48.11;100533.69;6185279;22;48525;-85
2022/06/19 01:07:26;;;;;;;;;10.00;10.00;;;;;23.08;47.81;100558.34;6211992;22;45234;-86
2022/06/19 01:09:53;;;;;;;;;11.75;10.25;;;;;22.79;47.77;100542.22;6211662;22;45160;-89
2022/06/19 01:12:20;;;;;;;;;10.00;8.25;;;;;22.53;49.25;100550.53;6185219;22;45505;-85
2022/06/19 01:14:47;;;;;;;;;10.50;9.75;;;;;22.34;48.29;100537.94;6185232;22;47102;-88
2022/06/19 01:17:14;;;;;;;;;10.75;10.00;;;;;22.18;48.61;100548.91;6160266;22;45269;-86
2022/06/19 01:19:41;;;;;;;;;17.00;11.25;;;;;21.99;50.15;100522.19;6186586;22;45303;-85
2022/06/19 01:22:21;;;;;;;;;9.75;8.75;;;;;21.96;49.86;100528.56;6215228;22;45398;-85
2022/06/19 01:24:56;;;;;;;;;15.25;11.50;;;;;21.93;48.78;100517.38;6189067;22;48329;-88
2022/06/19 01:30:07;;;;;;;;;14.50;12.50;;;;;21.68;48.66;100539.69;6213140;22;45248;-88
2022/06/19 01:32:35;;;;;;;;;13.50;12.00;;;;;21.51;49.17;100541.88;6210676;22;45272;-87
2022/06/19 01:35:01;;;;;;;;;12.25;10.00;;;;;21.35;49.21;100536.88;6185626;22;45194;-85
2022/06/19 01:37:28;;;;;;;;;12.25;9.00;;;;;21.25;50.32;100543.84;6184652;22;45206;-86
2022/06/19 01:40:00;;;;;;;;;12.50;10.75;;;;;21.20;49.44;100560.06;6185656;22;45348;-85
2022/06/19 01:42:25;;;;;;;;;16.75;11.00;;;;;21.10;49.35;100550.28;6185806;22;45202;-88
2022/06/19 01:44:53;;;;;;;;;13.50;11.25;;;;;21.05;50.04;100559.44;6184818;22;48319;-85
2022/06/19 01:47:19;;;;;;;;;15.00;13.00;;;;;20.99;50.42;100525.50;6210669;22;45307;-86
2022/06/19 01:49:47;;;;;;;;;11.75;10.00;;;;;20.97;49.51;100516.84;6185069;22;45441;-86
2022/06/19 01:52:13;;;;;;;;;16.50;12.50;;;;;20.95;49.84;100492.31;6184971;22;45237;-86
2022/06/19 01:54:43;;;;;;;;;10.00;10.00;;;;;20.98;50.11;100467.41;6184890;22;51504;-85
2022/06/19 01:57:10;;;;;;;;;12.50;11.25;;;;;20.87;50.65;100449.72;6185033;22;45836;-85
2022/06/19 01:59:39;;;;;;;;;15.25;12.00;;;;;20.76;52.13;100455.00;6210674;22;45327;-86
2022/06/19 02:02:07;;;;;;;;;13.50;11.25;;;;;20.69;50.53;100503.06;6211525;22;45223;-86
2022/06/19 02:04:33;;;;;;;;;13.75;11.50;;;;;20.59;51.17;100525.00;6184915;22;47248;-86
2022/06/19 02:07:02;;;;;;;;;16.50;10.50;;;;;20.64;50.96;100558.09;6210068;22;45332;-85
2022/06/19 02:09:28;;;;;;;;;13.00;9.00;;;;;20.60;50.75;100558.41;6212317;22;45292;-86
2022/06/19 02:11:53;;;;;;;;;13.50;12.25;;;;;20.64;52.04;100581.06;6182935;22;63585;-86
2022/06/19 02:14:19;;;;;;;;;13.75;11.00;;;;;20.59;50.46;100570.78;6158919;22;65242;-85
2022/06/19 02:16:46;;;;;;;;;12.00;11.00;;;;;20.66;51.15;100571.22;6210056;22;45411;-86
2022/06/19 02:19:12;;;;;;;;;14.25;11.50;;;;;20.63;51.17;100563.50;6185400;22;45325;-85
2022/06/19 02:21:44;;;;;;;;;13.00;13.00;;;;;20.61;51.18;100576.00;6184139;22;48148;-86
2022/06/19 02:24:13;;;;;;;;;12.50;11.50;;;;;20.68;51.68;100601.03;6184606;22;48155;-86
2022/06/19 02:26:40;;;;;;;;;11.75;9.00;;;;;20.65;51.01;100565.09;6209784;22;45803;-86
2022/06/19 02:29:09;;;;;;;;;16.25;9.00;;;;;20.71;51.04;100574.38;6185359;22;45435;-86
2022/06/19 02:31:35;;;;;;;;;12.00;10.00;;;;;20.71;50.30;100576.16;6185054;22;45371;-86
2022/06/19 02:34:06;;;;;;;;;14.00;10.25;;;;;20.67;51.07;100592.25;6184350;22;46559;-85
2022/06/19 02:36:39;;;;;;;;;17.75;11.00;;;;;20.68;51.45;100593.09;6184776;22;45742;-85
2022/06/19 02:39:20;;;;;;;;;12.00;10.75;;;;;20.76;50.97;100616.31;6184808;22;45355;-85
2022/06/19 02:41:51;;;;;;;;;7.75;7.00;;;;;20.76;50.52;100626.91;6209891;22;45358;-86
2022/06/19 02:44:16;;;;;;;;;9.75;8.00;;;;;20.73;51.37;100619.19;6209758;22;48516;-86
2022/06/19 02:46:41;;;;;;;;;12.75;8.50;;;;;20.72;50.88;100657.19;6183978;22;55498;-86
2022/06/19 02:49:07;;;;;;;;;13.00;10.00;;;;;20.75;52.58;100827.09;6184468;22;46190;-85
2022/06/19 02:51:32;;;;;;;;;10.50;9.00;;;;;20.54;52.92;100902.59;6209953;22;45477;-84
2022/06/19 02:53:58;;;;;;;;;12.25;9.00;;;;;20.33;53.00;100778.03;6208927;22;70509;-86
2022/06/19 02:56:24;;;;;;;;;8.00;8.00;;;;;20.41;52.01;100768.63;6184852;22;45264;-85
2022/06/19 02:58:49;;;;;;;;;14.25;10.25;;;;;20.34;53.39;100828.16;6209916;22;48750;-84
2022/06/19 03:01:15;;;;;;;;;12.25;8.00;;;;;20.28;52.42;100845.28;6184035;22;46640;-85
2022/06/19 03:03:40;;;;;;;;;10.50;8.75;;;;;20.29;52.56;100817.88;6210696;22;45475;-85
2022/06/19 03:06:06;;;;;;;;;12.00;10.00;;;;;20.19;53.04;100830.03;6184127;22;47545;-85
2022/06/19 03:08:32;;;;;;;;;14.25;8.00;;;;;20.24;52.02;100702.84;6185095;22;45269;-87
2022/06/19 03:10:57;;;;;;;;;10.75;9.00;;;;;20.20;52.06;100763.00;6185116;22;45166;-85
2022/06/19 03:13:23;;;;;;;;;9.50;7.50;;;;;20.13;51.57;100694.84;6184461;22;46155;-86
2022/06/19 03:16:09;;;;;;;;;11.75;9.75;;;;;20.22;52.72;100763.75;6184428;22;45621;-85
2022/06/19 03:18:36;;;;;;;;;10.75;8.50;;;;;20.16;52.27;100803.81;6183670;22;45412;-85
2022/06/19 03:21:02;;;;;;;;;16.75;11.00;;;;;20.22;51.94;100774.31;6184279;22;45412;-85
2022/06/19 03:23:27;;;;;;;;;10.25;9.00;;;;;20.06;52.34;100771.06;6184627;22;59305;-85
2022/06/19 03:25:53;;;;;;;;;12.50;9.00;;;;;20.02;53.09;100765.13;6210848;22;45660;-85
2022/06/19 03:28:19;;;;;;;;;13.75;11.75;;;;;20.08;52.60;100766.50;6185781;22;45296;-86
2022/06/19 03:30:44;;;;;;;;;17.50;10.50;;;;;20.08;51.62;100740.91;6210308;22;55621;-85
2022/06/19 03:33:09;;;;;;;;;17.75;11.75;;;;;20.01;52.07;100744.94;6184764;22;48176;-85
2022/06/19 03:35:35;;;;;;;;;11.75;10.75;;;;;19.94;51.87;100772.72;6210111;22;58391;-85
2022/06/19 03:38:00;;;;;;;;;14.75;13.50;;;;;19.97;52.28;100774.31;6211701;22;51994;-85
2022/06/19 03:40:25;;;;;;;;;18.00;12.00;;;;;19.87;52.15;100751.16;6185118;22;56037;-85
2022/06/19 03:42:51;;;;;;;;;13.75;10.75;;;;;19.90;52.44;100781.81;6185302;22;48125;-84
2022/06/19 03:45:16;;;;;;;;;12.00;12.00;;;;;19.89;51.95;100764.25;6185182;22;57991;-85
2022/06/19 03:47:42;;;;;;;;;17.25;14.00;;;;;19.84;52.61;100767.22;6211972;22;45326;-85
2022/06/19 03:50:08;;;;;;;;;13.00;11.50;;;;;19.80;53.80;100765.72;6210915;22;45608;-84
2022/06/19 03:52:34;;;;;;;;;14.25;12.25;;;;;19.78;52.71;100746.50;6185719;22;45561;-85
2022/06/19 03:54:59;;;;;;;;;16.00;14.00;;;;;19.76;53.06;100753.69;6185826;22;45277;-84
2022/06/19 03:57:25;;;;;;;;;17.25;11.00;;;;;19.70;53.06;100711.81;6185526;22;45318;-84
2022/06/19 03:59:51;;;;;;;;;11.75;11.00;;;;;19.77;52.36;100702.53;6185352;22;45442;-84
2022/06/19 04:02:18;;;;;;;;;14.50;11.75;;;;;19.69;52.92;100668.72;6185059;22;46340;-85
2022/06/19 04:04:44;;;;;;;;;14.00;11.75;;;;;19.75;53.05;100672.75;6185540;22;45222;-84
2022/06/19 04:07:11;;;;;;;;;14.50;10.25;;;;;19.76;52.10;100714.06;6185880;22;45268;-83
2022/06/19 04:09:37;;;;;;;;;11.50;10.00;;;;;19.65;52.60;100717.41;6212331;22;45198;-84
2022/06/19 04:12:02;;;;;;;;;15.00;10.50;;;;;19.65;53.22;100762.28;6210326;22;48232;-84
2022/06/19 04:14:28;;;;;;;;;10.75;9.25;;;;;19.65;52.71;100772.00;6185406;22;45344;-84
2022/06/19 04:16:53;;;;;;;;;15.00;11.75;;;;;19.65;54.73;100783.41;6209999;22;56007;-84
2022/06/19 04:19:18;;;;;;;;;16.75;12.50;;;;;19.61;54.00;100765.22;6209809;22;64404;-84
2022/06/19 04:21:45;;;;;;;;;13.50;9.00;;;;;19.70;54.28;100720.56;6185689;22;45280;-84
2022/06/19 04:24:14;;;;;;;;;14.00;11.00;;;;;19.74;54.01;100700.09;6185259;22;45340;-85
2022/06/19 04:26:40;;;;;;;;;17.75;11.50;;;;;19.78;55.29;100683.13;6185492;22;45344;-84
2022/06/19 04:29:07;;;;;;;;;13.25;11.00;;;;;19.73;55.46;100632.41;6212518;22;45260;-84
2022/06/19 04:31:33;;;;;;;;;15.00;11.00;;;;;19.66;55.34;100600.25;6184717;22;45984;-84
2022/06/19 04:33:58;;;;;;;;;14.75;13.00;;;;;19.58;56.62;100626.34;6184898;22;45527;-84
2022/06/19 04:36:25;;;;;;;;;18.25;13.25;;;;;19.43;57.48;100699.50;6211396;22;55347;-83
2022/06/19 04:38:54;;;;;;;;;13.50;12.00;;;;;19.28;57.55;100721.66;6185856;22;45257;-83
2022/06/19 04:41:29;;;;;;;;;11.75;9.75;;;;;19.28;59.16;100754.16;6185552;22;45500;-84
2022/06/19 04:43:59;;;;;;;;;14.00;10.75;;;;;19.20;57.90;100779.34;6185445;22;45309;-83
2022/06/19 04:46:25;;;;;;;;;11.00;9.75;;;;;19.15;57.52;100674.13;6213481;22;45359;-84
2022/06/19 04:48:51;;;;;;;;;14.75;9.00;;;;;19.20;57.71;100656.16;6185486;22;45534;-83
2022/06/19 04:51:20;;;;;;;;;14.75;9.00;;;;;19.27;57.53;100669.81;6212639;22;46261;-83
2022/06/19 04:53:46;;;;;;;;;10.50;8.00;;;;;19.27;57.29;100680.38;6185462;22;45241;-84
2022/06/19 04:56:13;;;;;;;;;11.50;9.50;;;;;19.25;57.26;100643.53;6185348;22;45248;-83
2022/06/19 04:58:39;;;;;;;;;10.50;10.00;;;;;19.30;57.47;100673.09;6213029;22;45478;-83
2022/06/19 05:01:18;;;;;;;;;10.75;9.50;;;;;19.26;57.95;100732.31;6180400;23;47551;-84
2022/06/19 05:03:44;;;;;;;;;10.50;8.25;;;;;19.14;57.37;100673.25;6182454;23;45724;-83
2022/06/19 05:06:09;;;;;;;;;13.00;9.00;;;;;19.18;57.01;100602.66;6130767;23;45219;-83
2022/06/19 05:08:34;;;;;;;;;7.00;6.75;;;;;19.15;57.72;100608.16;6181377;23;67659;-83
2022/06/19 05:11:00;;;;;;;;;11.25;7.75;;;;;19.06;58.91;100654.47;6181987;23;45774;-83
2022/06/19 05:13:25;;;;;;;;;6.50;5.00;;;;;18.97;57.98;100675.31;6180970;23;60500;-84
2022/06/19 05:16:02;;;;;;;;;9.50;7.75;;;;;18.91;59.49;100692.41;6154753;23;45769;-83
2022/06/19 05:18:27;;;;;;;;;9.25;8.00;;;;;18.90;60.26;100709.97;6182253;23;45196;-83
2022/06/19 05:20:57;;;;;;;;;6.25;6.00;;;;;18.88;58.60;100696.06;6181843;23;46241;-83
2022/06/19 05:23:22;;;;;;;;;8.25;6.00;;;;;18.95;59.39;100689.44;6154974;23;45353;-83
2022/06/19 05:25:47;;;;;;;;;8.00;5.50;;;;;18.95;59.16;100683.31;6180981;23;61924;-84
2022/06/19 05:28:13;;;;;;;;;8.00;5.00;;;;;18.94;58.64;100639.41;6181766;23;45229;-84
2022/06/19 05:30:38;;;;;;;;;7.50;6.00;;;;;19.01;58.24;100619.63;6154524;23;60648;-83
2022/06/19 05:33:03;;;;;;;;;11.00;6.00;;;;;19.02;59.32;100591.44;6180643;23;68476;-83
2022/06/19 05:35:29;;;;;;;;;8.75;5.75;;;;;18.98;58.72;100575.00;6154952;23;67785;-83
2022/06/19 05:37:54;;;;;;;;;6.25;5.00;;;;;19.05;57.79;100600.00;6154393;23;66952;-85
2022/06/19 05:40:19;;;;;;;;;10.25;6.00;;;;;19.06;58.29;100599.06;6182069;23;45413;-84
2022/06/19 05:42:47;;;;;;;;;9.25;5.75;;;;;18.98;59.38;100616.31;6182030;23;45259;-84
2022/06/19 05:45:13;;;;;;;;;8.00;6.00;;;;;18.94;58.23;100613.91;6181524;23;45570;-84
2022/06/19 05:47:38;;;;;;;;;7.25;5.00;;;;;18.92;60.40;100623.69;6155042;23;45489;-84
2022/06/19 05:50:04;;;;;;;;;5.25;4.00;;;;;18.93;59.21;100638.59;6180971;23;60529;-84
2022/06/19 05:52:29;;;;;;;;;5.00;4.00;;;;;18.92;57.94;100630.75;6181815;23;45304;-83
2022/06/19 05:54:54;;;;;;;;;4.00;4.00;;;;;18.84;58.09;100589.09;6181162;23;52680;-84
2022/06/19 05:57:20;;;;;;;;;5.00;4.00;;;;;18.85;57.74;100571.47;6155407;23;45462;-84
2022/06/19 05:59:46;;;;;;;;;5.00;3.00;;;;;18.72;57.88;100534.47;6154356;23;45379;-85
2022/06/19 06:02:16;;;;;;;;;6.50;4.25;;;;;18.67;59.13;100528.69;6194631;22;73879;-83
2022/06/19 06:04:42;;;;;;;;;3.00;3.00;;;;;18.58;57.73;100538.88;6181995;23;45207;-85
2022/06/19 06:07:11;;;;;;;;;4.75;3.75;;;;;18.56;59.94;100524.94;6180494;23;45431;-85
2022/06/19 06:09:36;;;;;;;;;4.75;3.50;;;;;18.55;58.56;100528.56;6182833;22;46487;-86
2022/06/19 06:12:05;;;;;;;;;4.00;3.25;;;;;18.61;58.76;100471.09;6180671;23;45330;-84
2022/06/19 06:14:31;;;;;;;;;5.25;3.75;;;;;18.53;59.65;100451.34;6182087;22;45305;-85
2022/06/19 06:16:56;;;;;;;;;4.00;3.00;;;;;18.67;58.83;100502.31;6181057;23;45197;-84
2022/06/19 06:19:22;;;;;;;;;6.00;3.50;;;;;18.77;58.21;100514.75;6182520;23;54044;-84
2022/06/19 06:21:47;;;;;;;;;3.25;3.00;;;;;18.86;57.94;100545.00;6181828;23;45263;-85
2022/06/19 06:24:14;;;;;;;;;5.00;3.00;;;;;18.90;60.44;100588.66;6179533;23;55636;-85
2022/06/19 06:26:40;;;;;;;;;5.00;3.00;;;;;18.76;58.68;100604.53;6180925;23;45435;-85
2022/06/19 06:29:07;;;;;;;;;5.50;3.25;;;;;18.79;59.62;100658.84;6181680;23;47095;-85
2022/06/19 06:31:33;;;;;;;;;6.25;3.00;;;;;18.63;59.52;100682.72;6180211;23;45669;-85
2022/06/19 06:33:58;;;;;;;;;2.00;2.00;;;;;18.64;59.79;100702.88;6182173;23;45151;-84
2022/06/19 06:36:23;;;;;;;;;5.00;3.00;;;;;18.57;59.72;100699.75;6180858;23;45461;-85
2022/06/19 06:38:49;;;;;;;;;4.75;3.75;;;;;18.65;58.62;100604.41;6181643;22;45247;-85
2022/06/19 06:41:15;;;;;;;;;4.00;3.00;;;;;18.69;59.08;100741.19;6181589;22;45264;-84
2022/06/19 06:43:42;;;;;;;;;4.25;3.00;;;;;18.51;59.36;100743.16;6180112;23;45331;-85
2022/06/19 06:46:27;;;;;;;;;5.00;3.50;;;;;18.43;60.59;100626.00;6181387;22;45272;-85
2022/06/19 06:48:55;;;;;;;;;3.00;2.25;;;;;18.47;61.55;100638.88;6181302;22;45271;-84
2022/06/19 06:51:26;;;;;;;;;8.75;3.50;;;;;18.30;61.07;100602.22;6181092;22;45312;-83
2022/06/19 06:53:52;;;;;;;;;3.75;2.00;;;;;18.40;59.98;100589.31;6179282;23;45322;-83
2022/06/19 06:56:18;;;;;;;;;5.00;3.00;;;;;18.39;60.41;100606.91;6180953;22;45299;-84
2022/06/19 06:58:44;;;;;;;;;5.00;1.50;;;;;18.32;59.97;100624.06;6205606;22;48051;-84
2022/06/19 07:01:13;;;;;;;;;3.25;3.00;;;;;18.32;59.15;100589.78;6183730;22;45327;-83
2022/06/19 07:03:39;;;;;;;;;3.00;3.00;;;;;18.22;60.37;100544.75;6182348;22;45304;-84
2022/06/19 07:06:05;;;;;;;;;4.00;2.75;;;;;18.23;61.48;100554.34;6206104;22;45280;-84
2022/06/19 07:08:30;;;;;;;;;6.25;2.50;;;;;18.29;59.28;100579.44;6181988;23;45535;-84
2022/06/19 07:10:55;;;;;;;;;3.25;2.00;;;;;18.25;59.00;100642.03;6205788;22;47167;-84
2022/06/19 07:13:21;;;;;;;;;3.50;2.25;;;;;18.17;59.93;100636.41;6181297;23;60158;-84
2022/06/19 07:15:46;;;;;;;;;4.50;3.00;;;;;18.18;60.44;100653.88;6205814;22;45462;-84
2022/06/19 07:18:12;;;;;;;;;6.00;2.75;;;;;18.22;59.94;100684.38;6204682;22;70219;-85
2022/06/19 07:20:37;;;;;;;;;8.25;2.75;;;;;18.22;60.14;100673.84;6205940;22;45348;-85
2022/06/19 07:23:04;;;;;;;;;2.25;2.25;;;;;18.28;60.20;100678.72;6179815;23;66797;-85
2022/06/19 07:25:31;;;;;;;;;7.00;3.00;;;;;18.28;59.62;100604.13;6205764;22;45363;-84
2022/06/19 07:27:59;;;;;;;;;5.75;3.00;;;;;18.37;61.15;100645.69;6205754;22;46156;-84
2022/06/19 07:30:26;;;;;;;;;6.25;2.00;;;;;18.49;61.05;100737.16;6182554;23;45316;-84
2022/06/19 07:32:52;;;;;;;;;3.00;2.00;;;;;18.38;60.03;100768.59;6206108;22;45387;-85
2022/06/19 07:35:18;;;;;;;;;3.00;2.00;;;;;18.39;61.02;100783.47;6206087;22;45545;-84
2022/06/19 07:37:44;;;;;;;;;3.50;3.50;;;;;18.47;59.92;100804.09;6206052;22;46068;-85
2022/06/19 07:40:15;;;;;;;;;5.75;3.75;;;;;18.53;60.70;100809.81;6181523;23;57886;-85
2022/06/19 07:42:41;;;;;;;;;3.50;3.50;;;;;18.67;60.01;100758.88;6182171;22;45245;-84
2022/06/19 07:45:07;;;;;;;;;4.00;3.00;;;;;18.81;59.25;100718.47;6182696;23;45200;-85
2022/06/19 07:50:17;;;;;;;;;4.00;3.00;;;;;19.16;59.49;100789.25;6202544;22;45295;-85
2022/06/19 07:52:45;;;;;;;;;3.75;3.75;;;;;19.12;58.90;100801.78;6182084;23;45282;-85
2022/06/19 07:55:13;;;;;;;;;5.00;4.00;;;;;18.97;58.14;100826.50;6182105;22;45468;-84
2022/06/19 07:57:38;;;;;;;;;7.25;4.00;;;;;18.85;58.64;100851.00;6205672;22;46041;-84
2022/06/19 08:00:09;;;;;;;;;6.75;3.00;;;;;18.82;58.79;100865.22;6205825;22;45725;-84
2022/06/19 08:02:35;;;;;;;;;3.75;3.00;;;;;18.74;59.23;100917.56;6207670;22;45378;-85
2022/06/19 08:05:01;;;;;;;;;5.75;4.00;;;;;18.71;58.99;100960.78;6209499;22;70129;-85
2022/06/19 08:07:28;;;;;;;;;5.00;3.00;;;;;18.62;59.38;100928.84;6212328;22;46154;-84
2022/06/19 08:09:53;;;;;;;;;2.75;2.75;;;;;18.71;58.87;100847.41;6211896;22;45605;-85
2022/06/19 08:12:20;;;;;;;;;4.50;3.25;;;;;18.75;58.40;100784.78;6211176;22;62326;-84
2022/06/19 08:14:45;;;;;;;;;9.75;5.50;;;;;18.86;59.82;100748.06;6210755;22;45371;-84
2022/06/19 08:17:11;;;;;;;;;5.75;5.25;;;;;19.16;61.28;100768.13;6209492;22;70306;-85
2022/06/19 08:19:36;;;;;;;;;7.75;4.50;;;;;19.48;60.78;100721.19;6212147;22;45269;-85
2022/06/19 08:22:01;;;;;;;;;5.00;5.00;;;;;19.72;59.88;100680.84;6185553;22;45263;-85
2022/06/19 08:24:27;;;;;;;;;7.00;5.00;;;;;19.91;60.02;100707.75;6185072;22;45368;-84
2022/06/19 08:27:02;;;;;;;;;5.00;4.25;;;;;19.94;60.24;100687.34;6184421;22;75603;-84
2022/06/19 08:29:27;;;;;;;;;5.00;4.00;;;;;20.08;59.50;100713.66;6187650;22;45250;-85
2022/06/19 08:31:52;;;;;;;;;7.75;5.00;;;;;20.02;59.29;100720.22;6210613;22;54667;-85
2022/06/19 08:34:18;;;;;;;;;7.50;5.00;;;;;19.99;59.58;100711.66;6211433;22;59062;-85
2022/06/19 08:36:43;;;;;;;;;4.00;3.00;;;;;19.96;58.46;100686.28;6211519;22;62917;-85
2022/06/19 08:39:10;;;;;;;;;8.75;6.00;;;;;19.93;58.28;100678.59;6211565;22;45293;-85
2022/06/19 08:41:45;;;;;;;;;6.50;4.00;;;;;19.91;58.07;100712.19;6186004;22;45422;-86
2022/06/19 08:44:13;;;;;;;;;7.00;6.00;;;;;19.84;58.04;100695.91;6212269;22;45220;-86
2022/06/19 08:46:38;;;;;;;;;8.25;7.00;;;;;19.78;59.08;100688.41;6212535;22;45264;-85
2022/06/19 08:49:13;;;;;;;;;8.00;6.33;;;;;19.80;59.47;100675.06;6210594;22;45534;-85
2022/06/19 08:51:53;;;;;;;;;7.75;6.00;;;;;19.80;59.35;100669.78;6185412;22;45317;-85
2022/06/19 08:54:22;;;;;;;;;7.50;6.25;;;;;19.82;58.38;100691.69;6185305;22;45421;-85
2022/06/19 08:56:57;;;;;;;;;9.25;6.00;;;;;19.70;57.52;100704.72;6211929;22;46562;-85
2022/06/19 08:59:39;;;;;;;;;7.25;6.50;;;;;19.63;58.22;100702.59;6210845;22;45288;-85
2022/06/19 09:02:16;;;;;;;;;9.00;7.00;;;;;19.64;58.25;100694.56;6166179;23;45382;-84
2022/06/19 09:07:49;;;;;;;;;9.00;6.50;;;;;20.18;57.65;100690.91;6158962;23;45770;-85
2022/06/19 09:10:30;;;;;;;;;7.00;6.00;;;;;20.40;57.11;100692.06;6181890;23;45603;-85
2022/06/19 09:12:58;;;;;;;;;11.25;8.25;;;;;20.67;57.48;100713.91;6155141;23;45355;-84
2022/06/19 09:15:33;;;;;;;;;7.00;7.00;;;;;20.86;56.94;100712.59;6181814;23;45423;-85
2022/06/19 09:18:05;;;;;;;;;7.50;7.50;;;;;21.06;56.50;100743.72;6155191;23;45463;-85
2022/06/19 09:20:40;;;;;;;;;11.00;7.00;;;;;21.16;56.07;100749.19;6179443;23;45835;-84
2022/06/19 09:23:15;;;;;;;;;10.25;7.75;;;;;21.27;55.40;100756.34;6180085;23;45323;-84
2022/06/19 09:25:59;;;;;;;;;8.00;7.00;;;;;21.24;55.27;100791.81;6154979;23;45386;-85
2022/06/19 09:28:40;;;;;;;;;7.50;6.25;;;;;21.14;55.04;100787.31;6154849;23;47092;-84
2022/06/19 09:31:15;;;;;;;;;10.75;9.00;;;;;21.10;55.07;100810.53;6155083;23;46007;-84
2022/06/19 09:33:42;;;;;;;;;13.25;9.75;;;;;21.02;55.26;100812.84;6179839;23;45233;-84
2022/06/19 09:36:10;;;;;;;;;10.00;6.75;;;;;20.92;55.11;100811.84;6155118;23;45309;-84
2022/06/19 09:38:43;;;;;;;;;10.50;9.25;;;;;21.03;54.88;100822.50;6181710;23;46132;-85
2022/06/19 09:41:14;;;;;;;;;11.00;8.00;;;;;21.04;54.62;100816.22;6155757;23;45345;-85
2022/06/19 09:43:43;;;;;;;;;9.00;7.00;;;;;21.12;54.43;100823.63;6180449;23;45305;-84
2022/06/19 09:46:40;;;;;;;;;14.25;8.00;;;;;21.43;54.62;100831.06;6155326;23;45503;-84
2022/06/19 09:49:32;;;;;;;;;14.00;10.50;;;;;21.71;53.67;100841.44;6180541;23;46542;-84
2022/06/19 09:52:13;;;;;;;;;12.50;10.25;;;;;21.88;53.29;100843.69;6179395;23;45345;-85
2022/06/19 09:54:43;;;;;;;;;8.00;8.00;;;;;22.14;52.78;100839.06;6155670;23;45418;-85
2022/06/19 09:57:19;;;;;;;;;13.00;9.50;;;;;22.35;53.24;100835.75;6155730;23;45407;-84
2022/06/19 09:59:47;;;;;;;;;8.75;8.75;;;;;22.67;51.76;100851.81;6154643;23;46107;-84
2022/06/19 10:02:21;;;;;;;;;10.75;8.50;;;;;22.83;50.78;100845.31;6192457;22;45356;-84
2022/06/19 10:04:58;;;;;;;;;11.00;10.50;;;;;23.06;50.67;100835.53;6184690;22;45789;-85
2022/06/19 10:07:42;;;;;;;;;19.25;12.25;;;;;23.23;48.85;100829.72;6210372;22;45530;-84
2022/06/19 10:10:34;;;;;;;;;12.25;9.75;;;;;23.22;49.92;100819.25;6209992;22;46488;-84
2022/06/19 10:13:04;;;;;;;;;13.75;11.75;;;;;23.14;49.65;100822.47;6209902;22;45240;-85
2022/06/19 10:15:32;;;;;;;;;17.50;12.25;;;;;23.00;49.50;100805.84;6210839;22;45300;-85
2022/06/19 10:18:16;;;;;;;;;15.25;12.25;;;;;22.85;49.33;100803.56;6210121;22;45264;-86
2022/06/19 10:20:57;;;;;;;;;16.00;11.50;;;;;22.71;49.86;100799.34;6209919;22;46013;-86
2022/06/19 10:23:58;;;;;;;;;13.25;12.75;;;;;22.44;49.92;100792.63;6185085;22;45266;-85
2022/06/19 10:26:35;;;;;;;;;13.25;11.00;;;;;22.45;50.12;100790.78;6211422;22;45337;-84
2022/06/19 10:29:22;;;;;;;;;14.00;12.75;;;;;22.37;51.11;100776.31;6184755;22;45455;-85
2022/06/19 10:31:53;;;;;;;;;13.25;11.00;;;;;22.32;51.25;100759.09;6211112;22;45530;-85
2022/06/19 10:34:25;;;;;;;;;13.75;12.00;;;;;22.44;51.06;100768.75;6210723;22;45767;-85
2022/06/19 10:36:53;;;;;;;;;17.00;15.00;;;;;22.38;50.63;100762.13;6212759;22;45306;-85
2022/06/19 10:39:51;;;;;;;;;19.00;15.00;;;;;22.29;50.83;100772.56;6185431;22;45576;-85
2022/06/19 10:42:31;;;;;;;;;20.00;13.25;;;;;22.18;50.97;100774.22;6185487;22;48429;-84
2022/06/19 10:45:08;;;;;;;;;15.00;12.25;;;;;22.16;50.87;100767.38;6211009;22;45704;-85
2022/06/19 10:47:58;;;;;;;;;14.00;13.25;;;;;22.23;51.29;100777.38;6211341;22;45220;-85
2022/06/19 10:50:31;;;;;;;;;18.25;13.75;;;;;22.37;51.26;100778.13;6212651;22;45378;-85
2022/06/19 10:53:05;;;;;;;;;16.75;14.50;;;;;22.53;51.05;100783.94;6212573;22;46415;-85
2022/06/19 10:55:39;;;;;;;;;17.25;15.00;;;;;22.66;51.13;100791.78;6213501;22;45288;-84
2022/06/19 10:58:21;;;;;;;;;16.25;11.50;;;;;22.80;51.08;100793.31;6211662;22;45241;-85
2022/06/19 11:00:52;;;;;;;;;11.25;11.00;;;;;22.96;50.46;100792.94;6186082;22;45334;-85
2022/06/19 11:06:14;;;;;;;;;17.75;14.50;;;;;23.34;50.27;100781.88;6190096;22;45300;-85
2022/06/19 11:08:45;;;;;;;;;14.00;13.25;;;;;23.54;49.46;100790.84;6185740;22;45291;-85
2022/06/19 11:11:16;;;;;;;;;14.25;12.50;;;;;23.75;49.22;100798.00;6185685;22;45495;-85
2022/06/19 11:14:09;;;;;;;;;13.75;12.50;;;;;23.96;48.65;100796.25;6185963;22;48288;-85
2022/06/19 11:16:56;;;;;;;;;15.00;13.75;;;;;24.44;48.03;100808.16;6212262;22;45181;-85
2022/06/19 11:19:39;;;;;;;;;13.25;10.50;;;;;24.73;46.67;100818.94;6212284;22;45224;-85
2022/06/19 11:22:27;;;;;;;;;11.25;10.00;;;;;24.94;46.42;100818.00;6185595;22;45243;-85
2022/06/19 11:24:53;;;;;;;;;13.00;11.00;;;;;25.33;45.44;100818.13;6185977;22;45474;-85
2022/06/19 11:27:23;;;;;;;;;14.50;11.00;;;;;25.66;44.93;100805.38;6185527;22;45832;-84
2022/06/19 11:29:50;;;;;;;;;10.25;10.25;;;;;25.97;43.97;100807.94;6186314;22;45335;-86
2022/06/19 11:32:21;;;;;;;;;9.00;9.00;;;;;25.90;43.28;100791.59;6185704;22;45378;-85
2022/06/19 11:35:03;;;;;;;;;12.00;10.00;;;;;26.38;43.39;100796.00;6160340;22;47163;-85
2022/06/19 11:37:46;;;;;;;;;12.00;10.50;;;;;26.82;42.47;100800.78;6212516;22;45766;-85